createdAt,value
2019-05-03T00:01:23.980Z,12.80
2019-05-03T00:03:54.235Z,12.90
2019-05-03T00:06:24.235Z,12.70
2019-05-03T00:08:54.664Z,12.60
2019-05-03T00:11:24.564Z,12.70
2019-05-03T00:13:54.832Z,13.00
2019-05-03T00:16:29.831Z,13.30
2019-05-03T00:19:01.568Z,13.40
2019-05-03T00:21:32.682Z,13.20
2019-05-03T00:24:02.671Z,13.00
2019-05-03T00:26:32.624Z,13.00
2019-05-03T00:29:02.608Z,12.30
2019-05-03T00:31:32.804Z,13.00
2019-05-03T00:34:06.640Z,12.70
2019-05-03T00:36:50.081Z,12.60
2019-05-03T00:39:34.054Z,13.00
2019-05-03T00:42:03.993Z,12.70
2019-05-03T00:44:33.668Z,13.20
2019-05-03T00:47:03.629Z,13.90
2019-05-03T00:49:33.287Z,12.90
2019-05-03T00:52:03.257Z,13.20
2019-05-03T00:54:32.919Z,13.40
2019-05-03T00:57:03.020Z,13.20
2019-05-03T00:59:32.915Z,13.70
2019-05-03T01:02:02.869Z,14.20
2019-05-03T01:04:32.744Z,14.10
2019-05-03T01:07:02.515Z,13.90
2019-05-03T01:09:32.668Z,13.40
2019-05-03T01:12:02.551Z,13.30
2019-05-03T01:14:32.997Z,13.20
2019-05-03T01:17:02.887Z,13.40
2019-05-03T01:19:33.957Z,13.60
2019-05-03T01:22:03.591Z,13.70
2019-05-03T01:24:33.579Z,13.90
2019-05-03T01:27:04.021Z,14.20
2019-05-03T01:29:33.976Z,14.50
2019-05-03T01:32:03.706Z,14.40
2019-05-03T01:34:33.525Z,14.10
2019-05-03T01:37:03.372Z,14.00
2019-05-03T01:39:33.545Z,14.00
2019-05-03T01:42:03.408Z,13.50
2019-05-03T01:44:33.276Z,13.40
2019-05-03T01:47:06.595Z,12.80
2019-05-03T01:49:43.452Z,13.00
2019-05-03T01:52:26.636Z,13.10
2019-05-03T01:54:56.695Z,13.10
2019-05-03T01:57:27.615Z,13.20
2019-05-03T01:59:57.432Z,12.80
2019-05-03T02:02:36.649Z,13.40
2019-05-03T02:05:32.131Z,13.20
2019-05-03T02:08:02.253Z,12.30
2019-05-03T02:10:32.333Z,12.70
2019-05-03T02:13:03.487Z,12.80
2019-05-03T02:15:33.374Z,13.00
2019-05-03T02:18:03.219Z,12.90
2019-05-03T02:20:32.995Z,12.30
2019-05-03T02:23:03.092Z,11.90
2019-05-03T02:25:33.041Z,12.00
2019-05-03T02:28:02.880Z,11.90
2019-05-03T02:30:33.317Z,12.00
2019-05-03T02:33:05.073Z,12.10
2019-05-03T02:35:35.362Z,11.80
2019-05-03T02:38:05.401Z,11.80
2019-05-03T02:40:35.689Z,12.20
2019-05-03T02:43:09.199Z,11.70
2019-05-03T02:45:58.375Z,12.20
2019-05-03T02:48:36.432Z,12.70
2019-05-03T02:51:06.806Z,12.20
2019-05-03T02:53:36.464Z,12.50
2019-05-03T02:56:20.979Z,12.70
2019-05-03T02:58:37.810Z,12.20
2019-05-03T03:01:07.781Z,12.90
2019-05-03T03:03:37.924Z,12.60
2019-05-03T03:06:07.584Z,12.10
2019-05-03T03:08:39.194Z,12.60
2019-05-03T03:11:09.890Z,11.90
2019-05-03T03:13:41.278Z,12.50
2019-05-03T03:16:11.423Z,12.70
2019-05-03T03:18:42.228Z,12.70
2019-05-03T03:21:16.476Z,12.70
2019-05-03T03:24:06.220Z,12.60
2019-05-03T03:26:42.832Z,12.90
2019-05-03T03:29:11.455Z,13.00
2019-05-03T03:32:19.648Z,12.40
2019-05-03T03:35:13.009Z,12.20
2019-05-03T03:37:46.000Z,12.30
2019-05-03T03:40:16.119Z,11.90
2019-05-03T03:42:47.847Z,12.00
2019-05-03T03:45:17.799Z,12.40
2019-05-03T03:47:50.852Z,12.00
2019-05-03T03:50:21.879Z,12.50
2019-05-03T03:52:52.597Z,12.30
2019-05-03T03:55:26.445Z,12.60
2019-05-03T03:57:55.813Z,12.90
2019-05-03T04:00:25.925Z,13.00
2019-05-03T04:02:55.698Z,13.00
2019-05-03T04:05:25.809Z,12.20
2019-05-03T04:07:56.131Z,12.40
2019-05-03T04:10:26.827Z,11.80
2019-05-03T04:12:57.320Z,11.10
2019-05-03T04:15:37.801Z,9.70
2019-05-03T04:18:26.916Z,9.40
2019-05-03T04:20:57.066Z,9.60
2019-05-03T04:23:27.064Z,9.00
2019-05-03T04:25:57.057Z,9.50
2019-05-03T04:28:26.908Z,9.80
2019-05-03T04:30:57.487Z,10.00
2019-05-03T04:33:27.307Z,10.00
2019-05-03T04:35:57.322Z,10.20
2019-05-03T04:38:26.952Z,10.10
2019-05-03T04:40:56.589Z,9.90
2019-05-03T04:43:26.762Z,9.80
2019-05-03T04:46:16.664Z,9.90
2019-05-03T04:48:46.683Z,10.40
2019-05-03T04:51:16.785Z,11.10
2019-05-03T04:53:51.168Z,12.00
2019-05-03T04:56:21.016Z,12.70
2019-05-03T04:58:50.651Z,13.50
2019-05-03T05:01:20.383Z,13.50
2019-05-03T05:03:50.218Z,13.10
2019-05-03T05:06:19.909Z,12.30
2019-05-03T05:08:49.875Z,11.10
2019-05-03T05:11:19.962Z,11.60
2019-05-03T05:13:50.034Z,11.00
2019-05-03T05:16:19.716Z,11.80
2019-05-03T05:18:55.843Z,11.80
2019-05-03T05:21:28.872Z,11.40
2019-05-03T05:24:05.682Z,11.60
2019-05-03T05:26:47.068Z,12.10
2019-05-03T05:29:18.388Z,12.70
2019-05-03T05:31:48.087Z,12.30
2019-05-03T05:34:17.731Z,12.60
2019-05-03T05:36:47.735Z,12.90
2019-05-03T05:39:18.857Z,12.50
2019-05-03T05:41:48.769Z,12.00
2019-05-03T05:44:18.419Z,12.00
2019-05-03T05:47:04.719Z,12.00
2019-05-03T05:50:02.073Z,12.30
2019-05-03T05:52:31.740Z,12.20
2019-05-03T05:55:20.471Z,11.60
2019-05-03T05:58:07.529Z,11.70
2019-05-03T06:00:57.795Z,12.20
2019-05-03T06:03:27.599Z,12.80
2019-05-03T06:05:58.883Z,13.10
2019-05-03T06:08:52.416Z,12.50
2019-05-03T06:11:45.007Z,12.30
2019-05-03T06:14:18.660Z,12.90
2019-05-03T06:17:05.836Z,12.40
2019-05-03T06:19:42.431Z,13.30
2019-05-03T06:22:20.488Z,14.30
2019-05-03T06:24:55.576Z,15.20
2019-05-03T06:27:32.295Z,17.10
2019-05-03T06:30:09.418Z,17.10
2019-05-03T06:32:40.757Z,17.60
2019-05-03T06:35:10.825Z,17.60
2019-05-03T06:37:45.870Z,16.30
2019-05-03T06:40:15.787Z,16.00
2019-05-03T06:42:54.602Z,15.70
2019-05-03T06:45:17.116Z,14.60
2019-05-03T06:47:50.014Z,12.80
2019-05-03T06:50:19.579Z,13.20
2019-05-03T06:52:50.363Z,12.90
2019-05-03T06:55:20.276Z,14.00
2019-05-03T06:57:50.222Z,14.50
2019-05-03T07:00:45.487Z,14.40
2019-05-03T07:03:37.212Z,14.80
2019-05-03T07:06:34.502Z,13.50
2019-05-03T07:09:07.151Z,13.00
2019-05-03T07:11:38.678Z,13.50
2019-05-03T07:14:08.752Z,13.60
2019-05-03T07:16:38.550Z,14.40
2019-05-03T07:19:08.504Z,14.70
2019-05-03T07:21:38.766Z,14.00
2019-05-03T07:24:08.731Z,12.90
2019-05-03T07:26:38.570Z,13.30
2019-05-03T07:29:10.591Z,13.10
2019-05-03T07:31:41.001Z,14.70
2019-05-03T07:34:12.546Z,15.80
2019-05-03T07:36:42.177Z,15.50
2019-05-03T07:39:14.427Z,14.80
2019-05-03T07:41:44.699Z,15.00
2019-05-03T07:44:15.289Z,16.10
2019-05-03T07:46:45.526Z,16.80
2019-05-03T07:49:15.459Z,17.20
2019-05-03T07:51:45.218Z,16.20
2019-05-03T07:54:15.660Z,15.70
2019-05-03T07:56:51.229Z,14.90
2019-05-03T07:59:20.896Z,14.70
2019-05-03T08:01:54.603Z,15.90
2019-05-03T08:04:25.578Z,16.70
2019-05-03T08:06:55.658Z,16.00
2019-05-03T08:09:25.618Z,15.70
2019-05-03T08:11:56.528Z,16.70
2019-05-03T08:14:26.469Z,16.70
2019-05-03T08:16:56.411Z,15.60
2019-05-03T08:19:27.124Z,16.30
2019-05-03T08:21:57.200Z,16.80
2019-05-03T08:24:27.248Z,15.20
2019-05-03T08:26:57.105Z,16.20
2019-05-03T08:29:27.077Z,17.10
2019-05-03T08:32:17.471Z,17.50
2019-05-03T08:34:52.253Z,16.80
2019-05-03T08:37:28.154Z,16.50
2019-05-03T08:39:58.278Z,14.50
2019-05-03T08:42:27.938Z,14.70
2019-05-03T08:44:58.010Z,14.60
2019-05-03T08:47:27.776Z,14.20
2019-05-03T08:49:57.724Z,14.30
2019-05-03T08:52:27.592Z,14.80
2019-05-03T08:54:57.630Z,15.30
2019-05-03T08:57:28.601Z,14.90
2019-05-03T08:59:58.472Z,15.00
2019-05-03T09:02:28.332Z,14.10
2019-05-03T09:04:58.289Z,13.30
2019-05-03T09:07:28.235Z,13.80
2019-05-03T09:10:12.248Z,13.20
2019-05-03T09:12:57.423Z,13.90
2019-05-03T09:15:27.500Z,15.20
2019-05-03T09:17:57.894Z,13.80
2019-05-03T09:20:32.289Z,13.20
2019-05-03T09:23:00.865Z,14.20
2019-05-03T09:25:30.860Z,14.80
2019-05-03T09:28:00.584Z,15.60
2019-05-03T09:30:30.519Z,16.30
2019-05-03T09:33:00.219Z,15.70
2019-05-03T09:35:33.759Z,14.60
2019-05-03T09:38:02.243Z,13.30
2019-05-03T09:40:32.015Z,13.70
2019-05-03T09:43:01.984Z,13.00
2019-05-03T09:45:32.199Z,13.10
2019-05-03T09:48:02.082Z,12.20
2019-05-03T09:50:32.077Z,13.10
2019-05-03T09:53:02.135Z,14.10
2019-05-03T09:55:37.623Z,15.20
2019-05-03T09:58:07.605Z,16.10
2019-05-03T10:00:37.579Z,15.90
2019-05-03T10:03:07.540Z,16.20
2019-05-03T10:05:37.715Z,15.80
2019-05-03T10:08:07.612Z,16.40
2019-05-03T10:10:55.530Z,15.60
2019-05-03T10:13:27.066Z,16.00
2019-05-03T10:15:56.852Z,16.20
2019-05-03T10:18:26.824Z,15.40
2019-05-03T10:20:56.489Z,15.10
2019-05-03T10:23:39.560Z,14.70
2019-05-03T10:26:10.112Z,14.40
2019-05-03T10:28:40.256Z,14.30
2019-05-03T10:31:09.904Z,14.10
2019-05-03T10:33:57.979Z,14.50
2019-05-03T10:36:27.882Z,14.80
2019-05-03T10:38:57.546Z,14.50
2019-05-03T10:41:27.721Z,13.40
2019-05-03T10:43:57.664Z,13.00
2019-05-03T10:46:27.755Z,12.90
2019-05-03T10:48:57.581Z,14.30
2019-05-03T10:51:29.355Z,14.80
2019-05-03T10:54:00.343Z,15.10
2019-05-03T10:56:56.744Z,14.70
2019-05-03T10:59:26.379Z,15.10
2019-05-03T11:02:15.142Z,16.00
2019-05-03T11:04:46.824Z,16.30
2019-05-03T11:07:16.824Z,14.70
2019-05-03T11:09:51.805Z,14.60
2019-05-03T11:12:18.303Z,15.10
2019-05-03T11:14:48.031Z,15.80
2019-05-03T11:17:17.824Z,15.90
2019-05-03T11:19:47.904Z,15.40
2019-05-03T11:22:18.222Z,14.90
2019-05-03T11:24:47.883Z,14.70
2019-05-03T11:27:25.507Z,14.40
2019-05-03T11:29:55.637Z,14.20
2019-05-03T11:32:44.883Z,15.50
2019-05-03T11:35:24.605Z,15.00
2019-05-03T11:38:02.432Z,15.60
2019-05-03T11:40:34.489Z,15.40
2019-05-03T11:43:04.674Z,16.60
2019-05-03T11:45:35.383Z,16.60
2019-05-03T11:48:05.744Z,17.50
2019-05-03T11:50:37.468Z,17.20
2019-05-03T11:53:07.447Z,16.40
2019-05-03T11:55:37.453Z,15.40
2019-05-03T11:58:18.804Z,15.20
2019-05-03T12:00:51.847Z,15.10
2019-05-03T12:03:27.214Z,15.00
2019-05-03T12:05:58.819Z,15.60
2019-05-03T12:08:28.852Z,15.70
2019-05-03T12:11:01.584Z,15.40
2019-05-03T12:13:31.141Z,15.10
2019-05-03T12:16:01.951Z,15.00
2019-05-03T12:18:47.735Z,15.20
2019-05-03T12:21:06.926Z,15.10
2019-05-03T12:23:36.718Z,15.00
2019-05-03T12:26:11.006Z,15.30
2019-05-03T12:28:37.844Z,16.00
2019-05-03T12:31:07.540Z,16.30
2019-05-03T12:33:37.168Z,16.10
2019-05-03T12:36:06.968Z,16.20
2019-05-03T12:38:36.590Z,16.40
2019-05-03T12:41:06.373Z,16.30
2019-05-03T12:43:36.035Z,15.60
2019-05-03T12:46:05.736Z,15.40
2019-05-03T12:48:36.048Z,15.90
2019-05-03T12:51:07.057Z,16.60
2019-05-03T12:53:38.056Z,16.50
2019-05-03T12:56:11.495Z,16.10
2019-05-03T12:59:06.753Z,15.90
2019-05-03T13:01:58.215Z,16.10
2019-05-03T13:04:30.928Z,15.70
2019-05-03T13:07:06.511Z,15.90
2019-05-03T13:09:36.139Z,16.10
2019-05-03T13:12:07.041Z,16.20
2019-05-03T13:14:36.954Z,15.80
2019-05-03T13:17:06.577Z,16.00
2019-05-03T13:19:36.265Z,16.40
2019-05-03T13:22:06.008Z,16.50
2019-05-03T13:24:36.100Z,16.10
2019-05-03T13:27:05.868Z,16.10
2019-05-03T13:29:35.533Z,16.00
2019-05-03T13:32:05.708Z,15.40
2019-05-03T13:34:35.652Z,15.80
2019-05-03T13:37:05.742Z,15.80
2019-05-03T13:39:35.979Z,16.20
2019-05-03T13:42:06.093Z,16.20
2019-05-03T13:44:35.769Z,16.20
2019-05-03T13:47:05.364Z,16.10
2019-05-03T13:49:35.533Z,15.50
2019-05-03T13:52:05.431Z,15.30
2019-05-03T13:54:35.209Z,15.30
2019-05-03T13:57:05.175Z,15.70
2019-05-03T13:59:34.888Z,16.00
2019-05-03T14:02:15.008Z,15.70
2019-05-03T14:04:49.132Z,15.40
2019-05-03T14:07:07.180Z,15.60
2019-05-03T14:09:38.004Z,15.60
2019-05-03T14:12:07.727Z,15.90
2019-05-03T14:14:55.794Z,15.80
2019-05-03T14:17:28.033Z,15.40
2019-05-03T14:20:05.896Z,15.50
2019-05-03T14:22:37.360Z,15.20
2019-05-03T14:25:07.611Z,15.10
2019-05-03T14:27:37.859Z,14.90
2019-05-03T14:30:08.277Z,15.20
2019-05-03T14:32:37.906Z,15.10
2019-05-03T14:35:07.789Z,14.90
2019-05-03T14:37:38.074Z,14.90
2019-05-03T14:40:08.228Z,15.10
2019-05-03T14:42:38.262Z,15.00
2019-05-03T14:45:08.395Z,14.80
2019-05-03T14:47:38.017Z,14.90
2019-05-03T14:50:08.002Z,14.80
2019-05-03T14:52:37.649Z,15.00
2019-05-03T14:55:14.751Z,14.70
2019-05-03T14:57:51.540Z,15.00
2019-05-03T15:00:28.571Z,14.50
2019-05-03T15:03:09.840Z,14.80
2019-05-03T15:05:39.516Z,14.90
2019-05-03T15:08:09.409Z,14.50
2019-05-03T15:10:39.067Z,15.10
2019-05-03T15:13:08.940Z,15.10
2019-05-03T15:15:38.609Z,15.00
2019-05-03T15:18:08.557Z,14.90
2019-05-03T15:20:41.106Z,14.70
2019-05-03T15:23:10.126Z,14.60
2019-05-03T15:25:40.169Z,14.50
2019-05-03T15:28:10.268Z,14.60
2019-05-03T15:30:40.207Z,15.00
2019-05-03T15:33:10.191Z,14.40
2019-05-03T15:35:40.119Z,14.70
2019-05-03T15:38:10.111Z,14.90
2019-05-03T15:40:40.254Z,15.00
2019-05-03T15:43:34.848Z,14.60
2019-05-03T15:46:25.047Z,15.00
2019-05-03T15:48:58.543Z,15.00
2019-05-03T15:51:28.220Z,14.90
2019-05-03T15:53:58.044Z,14.60
2019-05-03T15:56:27.731Z,14.60
2019-05-03T15:58:57.752Z,14.80
2019-05-03T16:01:27.447Z,14.90
2019-05-03T16:03:57.302Z,14.80
2019-05-03T16:06:28.892Z,14.70
2019-05-03T16:08:58.756Z,15.00
2019-05-03T16:11:28.776Z,14.70
2019-05-03T16:13:58.815Z,14.50
2019-05-03T16:16:28.600Z,14.40
2019-05-03T16:18:58.543Z,14.60
2019-05-03T16:21:29.144Z,15.00
2019-05-03T16:23:59.387Z,15.30
2019-05-03T16:26:29.263Z,14.80
2019-05-03T16:29:15.024Z,14.50
2019-05-03T16:31:45.089Z,14.10
2019-05-03T16:34:15.237Z,14.30
2019-05-03T16:36:45.518Z,14.20
2019-05-03T16:39:15.706Z,14.80
2019-05-03T16:41:45.577Z,13.80
2019-05-03T16:44:16.542Z,13.80
2019-05-03T16:46:46.459Z,13.80
2019-05-03T16:49:16.490Z,13.80
2019-05-03T16:51:46.344Z,14.10
2019-05-03T16:54:18.288Z,14.10
2019-05-03T16:56:50.462Z,14.10
2019-05-03T16:59:20.300Z,14.00
2019-05-03T17:01:50.409Z,14.10
2019-05-03T17:04:58.301Z,14.20
2019-05-03T17:07:39.180Z,14.50
2019-05-03T17:10:38.882Z,14.10
2019-05-03T17:13:09.087Z,14.10
2019-05-03T17:15:39.027Z,14.10
2019-05-03T17:18:08.743Z,13.90
2019-05-03T17:20:38.843Z,14.20
2019-05-03T17:23:08.903Z,13.90
2019-05-03T17:25:38.673Z,13.80
2019-05-03T17:28:08.643Z,14.00
2019-05-03T17:30:38.722Z,13.90
2019-05-03T17:33:08.540Z,13.70
2019-05-03T17:35:38.383Z,13.60
2019-05-03T17:38:08.240Z,13.60
2019-05-03T17:40:55.867Z,13.80
2019-05-03T17:43:32.172Z,13.50
2019-05-03T17:46:04.279Z,13.40
2019-05-03T17:48:36.508Z,13.40
2019-05-03T17:51:06.647Z,13.10
2019-05-03T17:53:55.647Z,13.40
2019-05-03T17:56:47.497Z,13.40
2019-05-03T17:59:24.864Z,13.40
2019-05-03T18:02:15.043Z,13.60
2019-05-03T18:04:55.295Z,13.50
2019-05-03T18:07:50.724Z,13.50
2019-05-03T18:10:21.100Z,13.90
2019-05-03T18:12:51.388Z,13.30
2019-05-03T18:15:21.743Z,13.50
2019-05-03T18:17:51.741Z,13.40
2019-05-03T18:20:22.292Z,12.80
2019-05-03T18:22:54.501Z,13.50
2019-05-03T18:25:24.853Z,13.50
2019-05-03T18:27:55.145Z,13.60
2019-05-03T18:30:24.944Z,13.60
2019-05-03T18:32:54.921Z,13.80
2019-05-03T18:35:25.669Z,13.50
2019-05-03T18:37:59.139Z,13.70
2019-05-03T18:40:30.498Z,14.30
2019-05-03T18:43:05.391Z,13.70
2019-05-03T18:46:09.300Z,13.80
2019-05-03T18:48:38.952Z,13.70
2019-05-03T18:51:09.027Z,13.50
2019-05-03T18:53:38.679Z,13.30
2019-05-03T18:56:08.512Z,13.10
2019-05-03T18:58:38.163Z,13.40
2019-05-03T19:01:08.432Z,12.90
2019-05-03T19:03:38.660Z,13.10
2019-05-03T19:06:09.879Z,12.80
2019-05-03T19:08:57.810Z,13.30
2019-05-03T19:12:04.885Z,13.20
2019-05-03T19:14:34.636Z,13.50
2019-05-03T19:17:27.258Z,13.50
2019-05-03T19:19:57.771Z,13.40
2019-05-03T19:22:27.827Z,13.10
2019-05-03T19:24:57.823Z,12.90
2019-05-03T19:27:27.885Z,13.20
2019-05-03T19:29:57.744Z,13.40
2019-05-03T19:32:28.333Z,13.00
2019-05-03T19:34:58.186Z,12.70
2019-05-03T19:37:28.243Z,12.60
2019-05-03T19:39:58.616Z,13.00
2019-05-03T19:42:28.682Z,13.00
2019-05-03T19:44:58.343Z,13.80
2019-05-03T19:47:28.712Z,13.50
2019-05-03T19:49:58.344Z,13.50
2019-05-03T19:52:32.083Z,13.20
2019-05-03T19:55:01.784Z,13.00
2019-05-03T19:57:36.821Z,13.40
2019-05-03T20:00:08.071Z,13.40
2019-05-03T20:02:57.145Z,13.00
2019-05-03T20:05:36.564Z,13.10
2019-05-03T20:08:20.815Z,13.20
2019-05-03T20:10:54.556Z,12.60
2019-05-03T20:13:34.135Z,12.50
2019-05-03T20:15:55.711Z,12.70
2019-05-03T20:18:25.749Z,13.00
2019-05-03T20:20:55.436Z,12.60
2019-05-03T20:23:25.201Z,12.80
2019-05-03T20:25:54.873Z,13.00
2019-05-03T20:28:24.809Z,13.50
2019-05-03T20:30:54.576Z,12.80
2019-05-03T20:33:24.762Z,12.50
2019-05-03T20:35:56.227Z,12.30
2019-05-03T20:38:26.202Z,12.90
2019-05-03T20:40:57.364Z,12.70
2019-05-03T20:43:51.893Z,12.50
2019-05-03T20:46:43.338Z,12.60
2019-05-03T20:49:15.009Z,12.70
2019-05-03T20:51:45.925Z,13.40
2019-05-03T20:54:16.261Z,13.70
2019-05-03T20:56:45.909Z,13.20
2019-05-03T20:59:15.865Z,13.80
2019-05-03T21:01:45.544Z,13.80
2019-05-03T21:04:15.494Z,13.50
2019-05-03T21:06:45.636Z,12.50
2019-05-03T21:09:15.820Z,12.80
2019-05-03T21:11:45.526Z,12.60
2019-05-03T21:14:15.653Z,12.60
2019-05-03T21:17:04.565Z,12.70
2019-05-03T21:19:55.200Z,12.60
2019-05-03T21:22:29.776Z,13.30
2019-05-03T21:25:09.521Z,13.10
2019-05-03T21:27:39.363Z,12.30
2019-05-03T21:30:09.207Z,12.40
2019-05-03T21:32:38.869Z,12.50
2019-05-03T21:35:08.980Z,13.10
2019-05-03T21:37:38.784Z,12.80
2019-05-03T21:40:08.759Z,12.50
2019-05-03T21:42:38.443Z,13.30
2019-05-03T21:45:09.763Z,13.90
2019-05-03T21:48:04.949Z,13.80
2019-05-03T21:50:35.302Z,13.70
2019-05-03T21:53:05.916Z,11.90
2019-05-03T21:55:36.056Z,11.90
2019-05-03T21:58:05.680Z,12.50
2019-05-03T22:00:54.688Z,13.00
2019-05-03T22:03:25.226Z,12.40
2019-05-03T22:05:57.892Z,12.40
2019-05-03T22:08:26.744Z,13.00
2019-05-03T22:10:56.436Z,13.50
2019-05-03T22:13:26.151Z,12.50
2019-05-03T22:16:01.451Z,12.30
2019-05-03T22:18:31.908Z,12.00
2019-05-03T22:21:26.348Z,11.70
2019-05-03T22:24:25.234Z,10.70
2019-05-03T22:26:57.987Z,9.70
2019-05-03T22:29:27.683Z,9.00
2019-05-03T22:31:58.038Z,9.20
2019-05-03T22:34:27.676Z,9.50
2019-05-03T22:36:57.660Z,10.10
2019-05-03T22:39:27.645Z,10.60
2019-05-03T22:41:57.499Z,10.10
2019-05-03T22:44:27.579Z,9.70
2019-05-03T22:46:57.936Z,10.00
2019-05-03T22:49:27.914Z,9.90
2019-05-03T22:51:57.981Z,10.10
2019-05-03T22:54:27.877Z,11.60
2019-05-03T22:56:57.705Z,11.20
2019-05-03T22:59:27.988Z,10.20
2019-05-03T23:01:57.900Z,10.40
2019-05-03T23:04:27.765Z,10.40
2019-05-03T23:06:57.518Z,10.90
2019-05-03T23:09:27.484Z,11.10
2019-05-03T23:11:57.139Z,10.50
2019-05-03T23:14:26.992Z,11.60
2019-05-03T23:16:56.819Z,10.40
2019-05-03T23:19:26.833Z,10.00
2019-05-03T23:22:24.562Z,8.60
2019-05-03T23:24:54.824Z,9.70
2019-05-03T23:27:25.069Z,11.00
2019-05-03T23:29:55.019Z,10.30
2019-05-03T23:32:24.710Z,11.20
2019-05-03T23:34:54.766Z,10.70
2019-05-03T23:37:24.656Z,11.90
2019-05-03T23:39:55.115Z,11.70
2019-05-03T23:42:25.010Z,11.30
2019-05-03T23:44:55.047Z,11.00
2019-05-03T23:47:39.229Z,11.50
2019-05-03T23:50:12.848Z,11.40
2019-05-03T23:52:42.764Z,11.10
2019-05-03T23:55:24.885Z,10.80
2019-05-03T23:57:55.391Z,10.30
